createdAt,value
2023-03-15T00:01:52.357Z,2.03
2023-03-15T00:04:19.033Z,1.70
2023-03-15T00:06:46.066Z,1.73
2023-03-15T00:09:13.994Z,2.00
2023-03-15T00:11:40.533Z,1.70
2023-03-15T00:14:07.091Z,1.60
2023-03-15T00:16:33.856Z,1.40
2023-03-15T00:19:00.575Z,1.53
2023-03-15T00:21:29.898Z,1.50
2023-03-15T00:23:57.340Z,1.63
2023-03-15T00:26:23.952Z,1.50
2023-03-15T00:28:51.550Z,1.40
2023-03-15T00:31:21.798Z,1.70
2023-03-15T00:33:49.348Z,1.50
2023-03-15T00:36:16.562Z,1.60
2023-03-15T00:38:44.599Z,1.60
2023-03-15T00:41:17.303Z,1.50
2023-03-15T00:43:45.051Z,1.60
2023-03-15T00:46:12.714Z,1.60
2023-03-15T00:48:39.600Z,1.50
2023-03-15T00:51:10.050Z,1.50
2023-03-15T00:56:11.544Z,1.40
2023-03-15T00:58:39.231Z,1.50
2023-03-15T01:01:14.159Z,1.50
2023-03-15T01:03:42.096Z,1.40
2023-03-15T01:06:23.352Z,1.43
2023-03-15T01:09:00.249Z,1.30
2023-03-15T01:11:28.513Z,1.40
2023-03-15T01:13:57.205Z,1.50
2023-03-15T01:16:24.922Z,1.33
2023-03-15T01:18:52.030Z,1.30
2023-03-15T01:21:19.432Z,1.40
2023-03-15T01:23:46.603Z,1.50
2023-03-15T01:26:15.170Z,1.40
2023-03-15T01:28:42.129Z,1.30
2023-03-15T01:31:19.278Z,1.43
2023-03-15T01:33:46.016Z,1.40
2023-03-15T01:36:13.153Z,1.60
2023-03-15T01:38:39.911Z,1.50
2023-03-15T01:41:06.586Z,1.50
2023-03-15T01:43:34.440Z,1.60
2023-03-15T01:46:25.158Z,1.40
2023-03-15T01:48:54.505Z,1.70
2023-03-15T01:51:27.432Z,1.60
2023-03-15T01:54:06.654Z,1.70
2023-03-15T01:56:35.541Z,1.73
2023-03-15T01:59:05.801Z,1.67
2023-03-15T02:01:35.791Z,1.60
2023-03-15T02:04:16.766Z,1.73
2023-03-15T02:06:47.211Z,1.83
2023-03-15T02:11:43.533Z,1.97
2023-03-15T02:14:13.565Z,1.80
2023-03-15T02:16:40.451Z,1.95
2023-03-15T02:19:11.907Z,1.90
2023-03-15T02:22:09.406Z,2.30
2023-03-15T02:24:57.693Z,2.07
2023-03-15T02:27:44.902Z,2.07
2023-03-15T02:30:12.026Z,2.23
2023-03-15T02:32:39.482Z,2.17
2023-03-15T02:35:07.631Z,2.20
2023-03-15T02:37:34.245Z,2.10
2023-03-15T02:40:00.807Z,2.23
2023-03-15T02:42:28.787Z,2.30
2023-03-15T02:44:57.355Z,2.10
2023-03-15T02:47:32.766Z,2.80
2023-03-15T02:49:59.698Z,2.60
2023-03-15T02:52:26.526Z,3.00
2023-03-15T02:54:54.435Z,2.20
2023-03-15T02:57:21.509Z,2.07
2023-03-15T02:59:51.143Z,2.30
2023-03-15T03:02:18.468Z,2.42
2023-03-15T03:04:45.714Z,2.67
2023-03-15T03:07:13.298Z,2.40
2023-03-15T03:09:40.005Z,2.87
2023-03-15T03:12:07.232Z,2.63
2023-03-15T03:14:33.960Z,2.70
2023-03-15T03:17:01.687Z,2.60
2023-03-15T03:19:28.364Z,2.80
2023-03-15T03:21:55.079Z,2.43
2023-03-15T03:24:26.436Z,2.10
2023-03-15T03:26:57.967Z,2.37
2023-03-15T03:29:25.752Z,2.57
2023-03-15T03:31:52.736Z,2.90
2023-03-15T03:34:20.039Z,3.67
2023-03-15T03:36:48.866Z,2.47
2023-03-15T03:39:15.653Z,2.30
2023-03-15T03:41:42.634Z,2.37
2023-03-15T03:44:09.274Z,2.27
2023-03-15T03:46:36.547Z,2.33
2023-03-15T03:49:03.442Z,2.67
2023-03-15T03:51:30.839Z,2.33
2023-03-15T03:53:57.612Z,2.30
2023-03-15T03:56:24.161Z,2.00
2023-03-15T03:58:51.131Z,2.47
2023-03-15T04:01:18.902Z,2.53
2023-03-15T04:03:45.484Z,2.20
2023-03-15T04:06:12.081Z,2.37
2023-03-15T04:08:38.736Z,2.50
2023-03-15T04:11:05.463Z,2.33
2023-03-15T04:13:32.159Z,2.07
2023-03-15T04:16:01.550Z,2.40
2023-03-15T04:18:28.520Z,2.90
2023-03-15T04:20:55.380Z,2.30
2023-03-15T04:23:23.544Z,2.47
2023-03-15T04:25:55.356Z,2.30
2023-03-15T04:28:23.066Z,2.80
2023-03-15T04:30:50.585Z,2.40
2023-03-15T04:33:17.324Z,3.10
2023-03-15T04:35:44.110Z,2.50
2023-03-15T04:38:11.161Z,3.10
2023-03-15T04:40:37.805Z,3.00
2023-03-15T04:43:05.626Z,2.97
2023-03-15T04:45:32.473Z,2.73
2023-03-15T04:48:01.574Z,2.70
2023-03-15T04:50:30.064Z,3.03
2023-03-15T04:52:58.815Z,3.03
2023-03-15T04:55:25.534Z,2.47
2023-03-15T04:57:52.344Z,5.33
2023-03-15T05:00:20.188Z,4.50
2023-03-15T05:02:54.943Z,3.50
2023-03-15T05:05:23.966Z,2.70
2023-03-15T05:07:51.193Z,2.93
2023-03-15T05:10:18.335Z,3.07
2023-03-15T05:12:44.994Z,2.80
2023-03-15T05:15:13.144Z,3.00
2023-03-15T05:17:39.816Z,2.60
2023-03-15T05:20:12.820Z,2.93
2023-03-15T05:22:40.972Z,2.47
2023-03-15T05:25:10.118Z,2.60
2023-03-15T05:27:38.014Z,2.80
2023-03-15T05:30:06.164Z,2.53
2023-03-15T05:32:39.725Z,2.90
2023-03-15T05:35:07.761Z,2.67
2023-03-15T05:37:35.809Z,2.57
2023-03-15T05:40:08.340Z,2.90
2023-03-15T05:42:35.629Z,5.47
2023-03-15T05:45:02.524Z,4.50
2023-03-15T05:47:29.378Z,4.07
2023-03-15T05:49:56.037Z,3.90
2023-03-15T05:52:22.697Z,5.93
2023-03-15T05:54:49.426Z,5.30
2023-03-15T05:57:16.020Z,4.77
2023-03-15T05:59:42.573Z,4.47
2023-03-15T06:02:09.459Z,4.43
2023-03-15T06:04:38.051Z,4.37
2023-03-15T06:07:05.219Z,6.17
2023-03-15T06:09:32.193Z,7.90
2023-03-15T06:11:59.408Z,6.40
2023-03-15T06:14:27.567Z,4.30
2023-03-15T06:16:54.423Z,3.07
2023-03-15T06:19:21.960Z,4.10
2023-03-15T06:21:48.916Z,4.33
2023-03-15T06:24:15.915Z,3.73
2023-03-15T06:26:42.796Z,4.30
2023-03-15T06:29:09.830Z,3.30
2023-03-15T06:31:36.664Z,3.23
2023-03-15T06:34:03.289Z,2.97
2023-03-15T06:36:31.512Z,3.33
2023-03-15T06:38:58.237Z,2.80
2023-03-15T06:41:24.997Z,2.77
2023-03-15T06:43:51.964Z,3.50
2023-03-15T06:46:18.636Z,3.57
2023-03-15T06:48:45.280Z,6.97
2023-03-15T06:51:11.926Z,3.37
2023-03-15T06:53:39.124Z,2.90
2023-03-15T06:56:05.920Z,3.13
2023-03-15T06:58:32.553Z,3.03
2023-03-15T07:00:59.159Z,3.40
2023-03-15T07:03:25.972Z,3.50
2023-03-15T07:05:54.417Z,3.20
2023-03-15T07:08:22.026Z,3.30
2023-03-15T07:10:49.745Z,3.20
2023-03-15T07:13:19.368Z,2.80
2023-03-15T07:15:47.881Z,2.95
2023-03-15T07:18:14.606Z,3.07
2023-03-15T07:20:41.154Z,3.00
2023-03-15T07:23:07.864Z,2.50
2023-03-15T07:25:44.945Z,2.73
2023-03-15T07:28:19.265Z,3.23
2023-03-15T07:31:02.784Z,2.57
2023-03-15T07:33:31.794Z,2.83
2023-03-15T07:35:58.663Z,2.50
2023-03-15T07:38:31.806Z,3.47
2023-03-15T07:41:02.675Z,3.33
2023-03-15T07:43:29.645Z,3.30
2023-03-15T07:45:56.518Z,3.20
2023-03-15T07:48:23.329Z,3.03
2023-03-15T07:50:50.522Z,2.70
2023-03-15T07:53:17.372Z,2.73
2023-03-15T07:55:45.093Z,2.93
2023-03-15T07:58:20.548Z,2.37
2023-03-15T08:00:48.215Z,2.80
2023-03-15T08:03:15.441Z,3.00
2023-03-15T08:05:42.322Z,2.63
2023-03-15T08:08:09.144Z,2.67
2023-03-15T08:10:35.867Z,2.50
2023-03-15T08:13:02.916Z,2.43
2023-03-15T08:15:30.710Z,2.77
2023-03-15T08:17:57.400Z,2.50
2023-03-15T08:20:24.003Z,2.60
2023-03-15T08:22:51.862Z,2.60
2023-03-15T08:25:22.066Z,2.40
2023-03-15T08:27:49.158Z,2.33
2023-03-15T08:30:16.660Z,2.50
2023-03-15T08:32:45.178Z,2.20
2023-03-15T08:35:15.739Z,2.20
2023-03-15T08:37:48.085Z,2.70
2023-03-15T08:40:19.027Z,2.33
2023-03-15T08:42:46.091Z,1.97
2023-03-15T08:45:13.361Z,2.23
2023-03-15T08:47:39.922Z,2.20
2023-03-15T08:50:09.623Z,2.50
2023-03-15T08:52:36.513Z,2.00
2023-03-15T08:55:04.984Z,2.23
2023-03-15T08:57:33.020Z,1.97
2023-03-15T09:00:01.568Z,2.17
2023-03-15T09:02:31.126Z,2.07
2023-03-15T09:04:57.740Z,2.10
2023-03-15T09:07:24.436Z,2.27
2023-03-15T09:09:54.312Z,2.30
2023-03-15T09:12:21.665Z,2.40
2023-03-15T09:14:48.325Z,2.30
2023-03-15T09:17:15.320Z,2.30
2023-03-15T09:19:41.981Z,2.33
2023-03-15T09:22:16.848Z,2.03
2023-03-15T09:24:52.616Z,1.90
2023-03-15T09:27:19.750Z,2.00
2023-03-15T09:29:46.364Z,1.90
2023-03-15T09:32:13.468Z,2.50
2023-03-15T09:34:42.227Z,1.87
2023-03-15T09:37:09.679Z,2.00
2023-03-15T09:39:36.409Z,2.33
2023-03-15T09:42:08.865Z,1.93
2023-03-15T09:44:45.843Z,1.67
2023-03-15T09:47:25.847Z,1.70
2023-03-15T09:49:59.311Z,2.03
2023-03-15T09:52:44.570Z,1.87
2023-03-15T09:55:27.695Z,1.70
2023-03-15T09:57:59.424Z,1.97
2023-03-15T10:00:42.699Z,1.80
2023-03-15T10:03:19.037Z,1.90
2023-03-15T10:05:49.094Z,2.00
2023-03-15T10:08:20.420Z,1.70
2023-03-15T10:11:04.456Z,2.13
2023-03-15T10:13:53.157Z,1.80
2023-03-15T10:16:41.878Z,2.40
2023-03-15T10:19:21.883Z,2.03
2023-03-15T10:21:49.567Z,1.90
2023-03-15T10:24:21.134Z,2.20
2023-03-15T10:26:50.534Z,2.10
2023-03-15T10:29:27.111Z,1.97
2023-03-15T10:31:55.309Z,1.90
2023-03-15T10:34:23.615Z,2.00
2023-03-15T10:36:55.596Z,2.10
2023-03-15T10:39:23.089Z,2.00
2023-03-15T10:41:51.182Z,2.00
2023-03-15T10:44:26.700Z,2.00
2023-03-15T10:47:22.645Z,2.20
2023-03-15T10:49:56.405Z,2.00
2023-03-15T10:52:35.761Z,1.90
2023-03-15T10:55:18.728Z,1.80
2023-03-15T10:58:27.694Z,1.43
2023-03-15T11:01:01.054Z,1.67
2023-03-15T11:03:28.651Z,1.90
2023-03-15T11:05:58.119Z,1.80
2023-03-15T11:08:45.083Z,2.03
2023-03-15T11:11:11.857Z,18.37
2023-03-15T11:13:40.539Z,4.93
2023-03-15T11:16:13.275Z,2.17
2023-03-15T11:18:45.078Z,2.17
2023-03-15T11:21:18.419Z,2.13
2023-03-15T11:23:48.684Z,1.93
2023-03-15T11:26:33.164Z,2.10
2023-03-15T11:29:16.018Z,1.83
2023-03-15T11:31:42.813Z,1.83
2023-03-15T11:34:16.452Z,1.90
2023-03-15T11:37:05.314Z,1.80
2023-03-15T11:39:45.661Z,1.90
2023-03-15T11:42:48.458Z,1.80
2023-03-15T11:45:58.603Z,1.90
2023-03-15T11:50:56.258Z,1.80
2023-03-15T11:53:27.490Z,1.80
2023-03-15T11:55:54.850Z,1.77
2023-03-15T11:58:42.743Z,1.63
2023-03-15T12:01:11.675Z,2.20
2023-03-15T12:03:42.311Z,1.80
2023-03-15T12:06:13.463Z,2.10
2023-03-15T12:08:52.548Z,1.90
2023-03-15T12:11:22.126Z,1.80
2023-03-15T12:14:25.549Z,1.90
2023-03-15T12:16:57.408Z,2.33
2023-03-15T12:19:27.195Z,2.13
2023-03-15T12:21:57.799Z,1.65
2023-03-15T12:24:32.538Z,2.00
2023-03-15T12:27:06.723Z,1.90
2023-03-15T12:29:35.557Z,2.10
2023-03-15T12:32:02.079Z,2.03
2023-03-15T12:34:47.064Z,2.00
2023-03-15T12:37:31.679Z,2.10
2023-03-15T12:40:16.544Z,2.00
2023-03-15T12:42:43.103Z,1.87
2023-03-15T12:45:15.862Z,2.23
2023-03-15T12:47:51.686Z,2.30
2023-03-15T12:50:39.962Z,2.17
2023-03-15T12:53:23.697Z,2.30
2023-03-15T12:55:54.059Z,1.97
2023-03-15T12:58:35.044Z,2.07
2023-03-15T13:01:05.802Z,1.90
2023-03-15T13:03:34.947Z,2.20
2023-03-15T13:06:15.978Z,1.93
2023-03-15T13:08:57.433Z,2.07
2023-03-15T13:11:45.571Z,1.70
2023-03-15T13:14:22.755Z,1.80
2023-03-15T13:17:21.337Z,1.90
2023-03-15T13:19:56.325Z,2.00
2023-03-15T13:22:55.380Z,1.57
2023-03-15T13:26:13.861Z,1.77
2023-03-15T13:28:47.380Z,1.60
2023-03-15T13:31:19.943Z,1.57
2023-03-15T13:33:58.246Z,1.77
2023-03-15T13:36:47.137Z,1.60
2023-03-15T13:39:34.031Z,1.67
2023-03-15T13:42:18.550Z,2.00
2023-03-15T13:44:45.353Z,1.80
2023-03-15T13:47:24.603Z,2.33
2023-03-15T13:49:56.957Z,1.90
2023-03-15T13:52:23.775Z,1.80
2023-03-15T13:54:53.978Z,2.07
2023-03-15T13:57:22.591Z,2.20
2023-03-15T13:59:57.807Z,2.10
2023-03-15T14:02:56.825Z,2.03
2023-03-15T14:05:32.629Z,1.90
2023-03-15T14:08:02.849Z,2.00
2023-03-15T14:10:37.250Z,2.00
2023-03-15T14:13:34.337Z,2.33
2023-03-15T14:16:06.899Z,2.30
2023-03-15T14:18:39.316Z,2.60
2023-03-15T14:21:21.827Z,2.30
2023-03-15T14:23:49.670Z,2.20
2023-03-15T14:26:28.347Z,2.53
2023-03-15T14:29:02.512Z,2.60
2023-03-15T14:31:38.682Z,2.53
2023-03-15T14:34:36.877Z,2.40
2023-03-15T14:37:09.982Z,2.20
2023-03-15T14:39:41.998Z,2.63
2023-03-15T14:42:12.264Z,2.40
2023-03-15T14:44:38.986Z,2.42
2023-03-15T14:47:17.466Z,3.60
2023-03-15T14:49:45.104Z,3.63
2023-03-15T14:52:14.234Z,2.90
2023-03-15T14:54:48.558Z,2.70
2023-03-15T14:57:15.209Z,3.00
2023-03-15T14:59:41.998Z,3.03
2023-03-15T15:02:15.747Z,2.53
2023-03-15T15:04:43.945Z,2.23
2023-03-15T15:07:14.958Z,2.53
2023-03-15T15:09:47.563Z,2.93
2023-03-15T15:12:15.813Z,3.20
2023-03-15T15:14:45.130Z,2.57
2023-03-15T15:17:12.896Z,2.90
2023-03-15T15:19:39.456Z,4.20
2023-03-15T15:22:06.000Z,2.00
2023-03-15T15:24:32.733Z,3.10
2023-03-15T15:26:59.699Z,2.77
2023-03-15T15:29:26.313Z,3.20
2023-03-15T15:31:53.195Z,2.90
2023-03-15T15:34:19.997Z,4.60
2023-03-15T15:36:47.592Z,3.10
2023-03-15T15:39:27.705Z,5.20
2023-03-15T15:41:54.374Z,2.90
2023-03-15T15:44:24.064Z,3.37
2023-03-15T15:46:52.257Z,2.70
2023-03-15T15:49:19.582Z,2.77
2023-03-15T15:51:50.127Z,2.60
2023-03-15T15:54:20.766Z,5.03
2023-03-15T15:56:57.054Z,3.10
2023-03-15T15:59:27.255Z,4.07
2023-03-15T16:02:01.120Z,3.40
2023-03-15T16:04:29.348Z,2.87
2023-03-15T16:07:03.851Z,2.67
2023-03-15T16:09:35.982Z,2.87
2023-03-15T16:12:03.818Z,3.20
2023-03-15T16:14:30.636Z,2.87
2023-03-15T16:16:57.325Z,2.77
2023-03-15T16:19:24.016Z,2.63
2023-03-15T16:21:54.488Z,3.17
2023-03-15T16:26:50.551Z,3.20
2023-03-15T16:29:21.286Z,4.00
2023-03-15T16:31:48.788Z,2.20
2023-03-15T16:34:18.658Z,2.83
2023-03-15T16:36:54.881Z,6.13
2023-03-15T16:39:22.723Z,9.77
2023-03-15T16:41:49.708Z,28.80
2023-03-15T16:44:19.001Z,18.70
2023-03-15T16:46:46.534Z,13.53
2023-03-15T16:49:15.555Z,7.90
2023-03-15T16:51:45.985Z,5.90
2023-03-15T16:54:22.027Z,5.10
2023-03-15T16:56:54.654Z,5.90
2023-03-15T16:59:21.475Z,4.23
2023-03-15T17:01:50.611Z,2.60
2023-03-15T17:04:17.362Z,3.40
2023-03-15T17:06:47.781Z,3.97
2023-03-15T17:09:19.181Z,4.32
2023-03-15T17:11:49.814Z,6.87
2023-03-15T17:16:46.492Z,3.50
2023-03-15T17:19:14.765Z,3.30
2023-03-15T17:21:42.848Z,3.40
2023-03-15T17:24:11.376Z,3.30
2023-03-15T17:26:38.853Z,3.00
2023-03-15T17:29:05.950Z,2.50
2023-03-15T17:31:35.846Z,2.67
2023-03-15T17:34:02.711Z,2.30
2023-03-15T17:36:34.612Z,3.30
2023-03-15T17:39:04.541Z,3.80
2023-03-15T17:41:34.717Z,4.00
2023-03-15T17:44:01.779Z,3.97
2023-03-15T17:46:30.341Z,4.80
2023-03-15T17:48:58.531Z,4.57
2023-03-15T17:51:28.005Z,4.07
2023-03-15T17:53:55.238Z,3.90
2023-03-15T17:56:24.630Z,4.07
2023-03-15T17:58:52.646Z,3.73
2023-03-15T18:01:22.906Z,4.20
2023-03-15T18:03:51.220Z,5.07
2023-03-15T18:06:20.643Z,6.73
2023-03-15T18:08:48.610Z,7.00
2023-03-15T18:11:20.721Z,6.97
2023-03-15T18:13:48.459Z,6.77
2023-03-15T18:16:18.242Z,8.17
2023-03-15T18:18:45.290Z,7.00
2023-03-15T18:21:17.738Z,7.10
2023-03-15T18:23:44.783Z,7.67
2023-03-15T18:26:12.797Z,7.20
2023-03-15T18:28:40.367Z,7.73
2023-03-15T18:31:14.773Z,6.00
2023-03-15T18:33:41.625Z,6.20
2023-03-15T18:36:08.816Z,5.43
2023-03-15T18:38:36.260Z,5.30
2023-03-15T18:41:02.861Z,5.40
2023-03-15T18:43:29.579Z,5.77
2023-03-15T18:45:56.283Z,6.03
2023-03-15T18:48:39.793Z,7.17
2023-03-15T18:51:12.344Z,7.17
2023-03-15T18:53:39.513Z,7.80
2023-03-15T18:56:06.548Z,8.27
2023-03-15T18:58:33.292Z,8.90
2023-03-15T19:00:59.934Z,9.13
2023-03-15T19:03:27.585Z,8.90
2023-03-15T19:05:54.378Z,8.90
2023-03-15T19:08:20.949Z,11.07
2023-03-15T19:10:48.009Z,10.37
2023-03-15T19:13:14.597Z,11.87
2023-03-15T19:15:41.228Z,11.43
2023-03-15T19:18:08.367Z,11.80
2023-03-15T19:20:36.500Z,13.43
2023-03-15T19:23:03.476Z,13.27
2023-03-15T19:25:30.120Z,13.40
2023-03-15T19:27:57.443Z,14.00
2023-03-15T19:30:24.191Z,13.77
2023-03-15T19:32:51.210Z,14.70
2023-03-15T19:35:20.612Z,12.93
2023-03-15T19:37:48.088Z,14.37
2023-03-15T19:40:16.905Z,19.20
2023-03-15T19:42:43.870Z,20.90
2023-03-15T19:45:12.073Z,19.60
2023-03-15T19:47:38.726Z,21.57
2023-03-15T19:50:06.235Z,16.43
2023-03-15T19:52:33.646Z,15.70
2023-03-15T19:55:01.565Z,15.03
2023-03-15T19:57:29.531Z,14.77
2023-03-15T19:59:56.136Z,14.03
2023-03-15T20:02:23.074Z,14.73
2023-03-15T20:04:49.689Z,18.27
2023-03-15T20:07:17.395Z,16.67
2023-03-15T20:09:43.979Z,18.60
2023-03-15T20:12:12.390Z,18.37
2023-03-15T20:14:39.346Z,20.57
2023-03-15T20:17:05.952Z,21.17
2023-03-15T20:19:32.586Z,17.13
2023-03-15T20:21:59.756Z,17.93
2023-03-15T20:24:27.674Z,16.93
2023-03-15T20:26:54.553Z,15.57
2023-03-15T20:29:24.260Z,15.07
2023-03-15T20:31:53.902Z,15.13
2023-03-15T20:34:22.628Z,14.27
2023-03-15T20:36:50.042Z,12.17
2023-03-15T20:39:19.475Z,13.23
2023-03-15T20:41:54.467Z,14.53
2023-03-15T20:44:21.676Z,15.00
2023-03-15T20:46:49.585Z,13.87
2023-03-15T20:49:17.993Z,17.30
2023-03-15T20:51:45.256Z,15.60
2023-03-15T20:54:12.241Z,16.10
2023-03-15T20:56:40.021Z,17.13
2023-03-15T20:59:07.449Z,15.40
2023-03-15T21:01:34.923Z,18.50
2023-03-15T21:04:01.770Z,17.80
2023-03-15T21:06:28.447Z,17.33
2023-03-15T21:08:55.197Z,15.73
2023-03-15T21:11:21.877Z,17.30
2023-03-15T21:13:48.723Z,19.33
2023-03-15T21:16:15.477Z,20.97
2023-03-15T21:18:45.152Z,20.10
2023-03-15T21:21:11.795Z,19.83
2023-03-15T21:23:38.492Z,20.43
2023-03-15T21:26:07.990Z,21.63
2023-03-15T21:28:34.621Z,18.80
2023-03-15T21:31:01.884Z,18.13
2023-03-15T21:33:31.156Z,18.37
2023-03-15T21:35:59.391Z,19.53
2023-03-15T21:38:28.263Z,17.67
2023-03-15T21:40:59.345Z,17.47
2023-03-15T21:43:31.399Z,21.83
2023-03-15T21:46:07.374Z,18.57
2023-03-15T21:48:34.617Z,19.90
2023-03-15T21:51:02.168Z,16.97
2023-03-15T21:53:30.014Z,17.67
2023-03-15T21:55:58.564Z,14.97
2023-03-15T21:58:26.186Z,16.17
2023-03-15T22:01:05.105Z,20.27
2023-03-15T22:03:33.028Z,18.53
2023-03-15T22:06:00.357Z,17.00
2023-03-15T22:08:28.463Z,14.37
2023-03-15T22:10:56.964Z,14.43
2023-03-15T22:13:23.674Z,13.63
2023-03-15T22:15:56.454Z,14.03
2023-03-15T22:18:23.554Z,14.50
2023-03-15T22:20:51.084Z,12.80
2023-03-15T22:23:18.722Z,13.40
2023-03-15T22:25:45.961Z,13.17
2023-03-15T22:28:17.956Z,13.27
2023-03-15T22:30:48.131Z,14.00
2023-03-15T22:33:16.231Z,13.02
2023-03-15T22:35:42.904Z,13.47
2023-03-15T22:38:12.702Z,13.13
2023-03-15T22:40:40.992Z,12.80
2023-03-15T22:43:09.158Z,12.47
2023-03-15T22:45:35.971Z,11.73
2023-03-15T22:48:02.890Z,12.20
2023-03-15T22:50:29.595Z,14.23
2023-03-15T22:52:56.704Z,12.70
2023-03-15T22:55:23.370Z,14.20
2023-03-15T22:57:50.032Z,12.43
2023-03-15T23:00:22.035Z,14.10
2023-03-15T23:02:48.758Z,12.57
2023-03-15T23:05:15.461Z,12.40
2023-03-15T23:07:42.569Z,12.37
2023-03-15T23:10:11.485Z,11.63
2023-03-15T23:12:38.082Z,11.33
2023-03-15T23:15:05.154Z,11.93
2023-03-15T23:17:32.326Z,13.27
2023-03-15T23:19:59.184Z,12.57
2023-03-15T23:22:25.789Z,11.37
2023-03-15T23:24:52.374Z,11.77
2023-03-15T23:27:19.076Z,11.13
2023-03-15T23:29:54.162Z,13.37
2023-03-15T23:32:21.775Z,12.40
2023-03-15T23:34:48.786Z,12.13
2023-03-15T23:37:15.478Z,11.80
2023-03-15T23:39:42.613Z,14.27
2023-03-15T23:42:10.418Z,13.07
2023-03-15T23:44:38.129Z,12.60
2023-03-15T23:47:05.853Z,12.37
2023-03-15T23:49:33.792Z,13.57
2023-03-15T23:52:05.893Z,12.30
2023-03-15T23:54:40.005Z,12.43
2023-03-15T23:57:12.068Z,12.37
2023-03-15T23:59:40.278Z,11.80
